Time;durP1;ratioP1;P1;durP2;ratioP2;P2;SDS_P1;SDS_P2;PMS_P1;PMS_P2;Temp;Humidity;BMP_temperature;BMP_pressure;BME280_temperature;BME280_humidity;BME280_pressure;Samples;Min_cycle;Max_cycle;Signal;HPM_P1;HPM_P2
2021/12/27 00:01:11;;;;;;;124.73;42.37;;;;;;;-10.05;89.66;100280.28;4182856;28;23100;-68
2021/12/27 00:03:38;;;;;;;142.97;44.27;;;;;;;-9.94;89.74;100278.44;4187698;28;20293;-67
2021/12/27 00:06:09;;;;;;;138.43;43.63;;;;;;;-9.94;89.42;100278.44;4187720;28;21856;-67
2021/12/27 00:08:41;;;;;;;139.00;43.70;;;;;;;-9.90;89.55;100279.22;4183213;28;22748;-68
2021/12/27 00:11:09;;;;;;;147.07;43.40;;;;;;;-9.94;89.92;100278.44;4187900;28;21626;-68
2021/12/27 00:13:36;;;;;;;129.07;44.10;;;;;;;-9.78;89.67;100279.94;4197263;28;20233;-68
2021/12/27 00:16:02;;;;;;;130.20;44.13;;;;;;;-9.78;89.12;100277.34;4191384;28;20234;-68
2021/12/27 00:18:29;;;;;;;143.67;43.53;;;;;;;-9.76;89.08;100272.19;4204627;28;20266;-69
2021/12/27 00:20:56;;;;;;;148.80;46.47;;;;;;;-9.72;88.94;100278.13;4174460;28;20306;-67
2021/12/27 00:23:23;;;;;;;122.53;42.33;;;;;;;-9.79;89.04;100278.22;4190235;28;20233;-68
2021/12/27 00:25:49;;;;;;;127.10;42.67;;;;;;;-9.82;89.34;100273.13;4186323;28;20695;-69
2021/12/27 00:28:16;;;;;;;135.80;42.57;;;;;;;-9.98;89.98;100279.34;4182005;28;20824;-72
2021/12/27 00:30:42;;;;;;;139.33;43.73;;;;;;;-10.10;89.87;100282.91;4214475;28;23507;-69
2021/12/27 00:33:09;;;;;;;124.97;42.07;;;;;;;-10.19;90.35;100283.88;4200154;28;20259;-69
2021/12/27 00:35:36;;;;;;;143.07;43.53;;;;;;;-10.26;89.77;100281.41;4195412;28;20313;-67
2021/12/27 00:38:03;;;;;;;133.37;44.03;;;;;;;-10.19;89.38;100286.44;4189588;28;20696;-68
2021/12/27 00:40:30;;;;;;;133.63;43.33;;;;;;;-10.16;89.05;100288.16;4183403;28;20316;-68
2021/12/27 00:42:57;;;;;;;122.73;41.13;;;;;;;-10.19;88.81;100294.16;4186027;28;21648;-67
2021/12/27 00:45:23;;;;;;;135.23;44.13;;;;;;;-10.25;88.42;100294.25;4187932;28;21293;-68
2021/12/27 00:47:50;;;;;;;128.20;41.07;;;;;;;-10.25;88.50;100289.13;4186163;28;20233;-70
2021/12/27 00:50:17;;;;;;;116.33;39.93;;;;;;;-10.19;88.49;100293.31;4169252;28;20739;-68
2021/12/27 00:52:43;;;;;;;143.57;44.67;;;;;;;-10.11;88.78;100291.53;4185974;28;20346;-70
2021/12/27 00:55:12;;;;;;;123.63;42.23;;;;;;;-10.17;88.49;100293.31;4192451;28;20393;-69
2021/12/27 00:57:39;;;;;;;137.10;42.73;;;;;;;-10.11;89.29;100295.78;4184998;28;20283;-69
2021/12/27 01:00:11;;;;;;;134.00;42.03;;;;;;;-10.17;89.08;100295.88;4186578;28;20233;-69
2021/12/27 01:02:38;;;;;;;145.87;43.30;;;;;;;-10.21;89.09;100285.66;4185566;28;20232;-71
2021/12/27 01:05:06;;;;;;;121.20;42.83;;;;;;;-10.17;88.94;100286.44;4194130;28;20635;-68
2021/12/27 01:07:34;;;;;;;125.13;41.27;;;;;;;-10.21;89.22;100285.66;4175137;28;20246;-69
2021/12/27 01:13:19;;;;;;;126.97;43.43;;;;;;;-10.05;89.18;100286.28;4169500;28;20241;-69
2021/12/27 01:16:02;;;;;;;141.30;42.50;;;;;;;-10.20;89.14;100292.47;4201425;28;20300;-69
2021/12/27 01:18:29;;;;;;;143.60;44.10;;;;;;;-10.32;89.23;100287.53;4194261;28;20262;-70
2021/12/27 01:20:56;;;;;;;129.63;42.70;;;;;;;-10.16;89.50;100292.44;4187932;28;21786;-69
2021/12/27 01:23:22;;;;;;;134.40;44.20;;;;;;;-10.13;89.10;100292.41;4171440;28;20291;-68
2021/12/27 01:25:49;;;;;;;122.73;43.33;;;;;;;-10.05;88.81;100285.44;4189020;28;21340;-69
2021/12/27 01:28:16;;;;;;;139.53;43.90;;;;;;;-10.03;89.32;100286.28;4199301;28;21674;-69
2021/12/27 01:30:47;;;;;;;135.00;44.97;;;;;;;-10.07;88.99;100287.19;4184255;28;20602;-69
2021/12/27 01:33:19;;;;;;;135.37;44.77;;;;;;;-10.05;89.45;100288.00;4185183;28;20229;-68
2021/12/27 01:35:46;;;;;;;124.73;40.97;;;;;;;-10.24;89.53;100300.25;4182998;28;20245;-68
2021/12/27 01:38:14;;;;;;;144.93;46.43;;;;;;;-10.38;88.03;100294.44;4194336;28;21602;-68
2021/12/27 01:40:46;;;;;;;142.10;44.37;;;;;;;-10.48;88.10;100289.41;4183020;28;20232;-69
2021/12/27 01:43:21;;;;;;;165.07;48.73;;;;;;;-10.46;88.42;100297.13;4184661;28;20410;-69
2021/12/27 01:45:54;;;;;;;141.00;46.67;;;;;;;-10.38;88.10;100287.56;4186939;28;20263;-68
2021/12/27 01:48:24;;;;;;;171.40;52.47;;;;;;;-10.34;88.38;100290.97;4199164;28;20373;-68
2021/12/27 01:50:54;;;;;;;165.17;52.40;;;;;;;-10.32;88.62;100292.66;4179115;28;23049;-71
2021/12/27 01:53:25;;;;;;;156.20;49.13;;;;;;;-10.34;89.05;100294.41;4178593;28;20236;-68
2021/12/27 01:55:52;;;;;;;165.60;51.90;;;;;;;-10.64;89.21;100301.56;4172071;28;20240;-69
2021/12/27 01:58:20;;;;;;;161.97;51.60;;;;;;;-10.59;89.07;100306.66;4180125;28;21372;-68
2021/12/27 02:00:50;;;;;;;158.63;51.13;;;;;;;-10.82;89.24;100306.88;4178018;28;20229;-69
2021/12/27 02:03:19;;;;;;;163.47;50.00;;;;;;;-10.89;89.38;100305.22;4190187;28;20791;-68
2021/12/27 02:05:46;;;;;;;150.90;48.23;;;;;;;-10.78;90.06;100307.72;4180119;28;20993;-69
2021/12/27 02:08:12;;;;;;;152.90;48.00;;;;;;;-10.67;89.83;100311.03;4189086;28;20240;-69
2021/12/27 02:10:40;;;;;;;148.30;48.13;;;;;;;-10.80;89.48;100305.16;4190561;28;20296;-69
2021/12/27 02:13:07;;;;;;;150.63;48.53;;;;;;;-10.65;89.52;100309.31;4184238;28;20266;-69
2021/12/27 02:15:34;;;;;;;161.00;51.30;;;;;;;-10.93;89.41;100308.69;4166152;28;20852;-68
2021/12/27 02:18:01;;;;;;;157.80;49.53;;;;;;;-11.02;90.08;100309.63;4180189;28;20232;-69
2021/12/27 02:20:30;;;;;;;155.03;49.40;;;;;;;-11.25;90.90;100312.38;4190763;28;20733;-68
2021/12/27 02:23:01;;;;;;;142.80;46.33;;;;;;;-11.15;90.83;100314.00;4188942;28;20291;-69
2021/12/27 02:25:32;;;;;;;149.50;49.27;;;;;;;-10.94;90.25;100310.41;4188928;28;22426;-70
2021/12/27 02:28:01;;;;;;;164.03;49.60;;;;;;;-10.95;90.01;100311.28;4164078;28;20244;-69
2021/12/27 02:30:29;;;;;;;155.13;48.77;;;;;;;-10.86;89.71;100313.78;4165180;28;21819;-68
2021/12/27 02:33:03;;;;;;;159.80;50.30;;;;;;;-10.75;89.68;100323.94;4187124;28;20272;-67
2021/12/27 02:35:32;;;;;;;149.57;46.23;;;;;;;-10.85;89.14;100325.75;4205858;28;20299;-71
2021/12/27 02:37:59;;;;;;;157.70;50.10;;;;;;;-10.82;89.71;100324.88;4188997;28;20323;-71
2021/12/27 02:40:28;;;;;;;165.37;52.57;;;;;;;-10.72;89.11;100323.94;4181221;28;20539;-72
2021/12/27 02:43:11;;;;;;;149.27;48.17;;;;;;;-10.85;89.16;100317.19;4184885;28;20492;-71
2021/12/27 02:45:42;;;;;;;163.43;51.63;;;;;;;-10.87;89.28;100321.50;4200525;28;20237;-73
2021/12/27 02:48:11;;;;;;;148.23;47.97;;;;;;;-10.95;89.47;100313.88;4183195;28;25548;-71
2021/12/27 02:50:38;;;;;;;150.97;48.27;;;;;;;-11.01;89.36;100319.03;4191545;28;20244;-71
2021/12/27 02:53:06;;;;;;;156.63;51.17;;;;;;;-10.92;89.85;100311.25;4191381;28;22568;-70
2021/12/27 02:55:33;;;;;;;153.47;48.90;;;;;;;-10.90;89.89;100306.97;4185742;28;20541;-71
2021/12/27 02:58:00;;;;;;;152.87;49.73;;;;;;;-11.01;90.42;100305.34;4189536;28;22903;-70
2021/12/27 03:00:53;;;;;;;152.30;46.80;;;;;;;-11.14;90.48;100300.31;4185804;28;21789;-70
2021/12/27 03:03:20;;;;;;;147.43;46.57;;;;;;;-11.05;90.70;100299.38;4186099;28;20236;-71
2021/12/27 03:05:47;;;;;;;141.37;45.73;;;;;;;-11.11;90.82;100308.00;4183425;28;20689;-72
2021/12/27 03:08:16;;;;;;;152.27;47.03;;;;;;;-11.12;91.32;100303.72;4185490;28;20310;-71
2021/12/27 03:10:45;;;;;;;158.70;48.30;;;;;;;-11.20;91.76;100304.66;4191873;28;26486;-71
2021/12/27 03:13:32;;;;;;;166.63;50.27;;;;;;;-11.29;92.63;100300.44;4189530;28;20278;-71
2021/12/27 03:16:09;;;;;;;153.77;48.30;;;;;;;-11.30;92.65;100297.00;4183590;28;20318;-70
2021/12/27 03:18:38;;;;;;;150.20;45.83;;;;;;;-11.19;92.35;100293.50;4190449;28;20285;-72
2021/12/27 03:21:06;;;;;;;164.70;47.37;;;;;;;-11.43;92.47;100299.69;4187437;28;20252;-72
2021/12/27 03:23:33;;;;;;;155.70;48.27;;;;;;;-11.42;92.80;100291.97;4172856;28;22987;-71
2021/12/27 03:26:00;;;;;;;163.13;50.73;;;;;;;-11.41;92.42;100296.22;4187315;28;20248;-72
2021/12/27 03:28:27;;;;;;;156.23;49.03;;;;;;;-11.47;92.47;100289.44;4184094;28;20303;-71
2021/12/27 03:30:53;;;;;;;152.23;45.47;;;;;;;-11.51;93.51;100292.88;4191128;28;20251;-72
2021/12/27 03:33:22;;;;;;;138.90;44.33;;;;;;;-11.35;93.40;100290.22;4189923;28;20225;-71
2021/12/27 03:35:52;;;;;;;139.10;43.77;;;;;;;-11.24;92.56;100287.56;4179936;28;20228;-69
2021/12/27 03:38:19;;;;;;;151.00;44.70;;;;;;;-11.24;92.22;100290.13;4191189;28;23051;-71
2021/12/27 03:40:48;;;;;;;157.27;46.97;;;;;;;-11.25;92.24;100291.84;4192704;28;20341;-71
2021/12/27 03:43:14;;;;;;;141.07;44.17;;;;;;;-11.30;92.33;100288.47;4192435;28;20894;-72
2021/12/27 03:45:41;;;;;;;146.03;45.17;;;;;;;-11.26;92.24;100290.13;4182873;28;20243;-72
2021/12/27 03:48:09;;;;;;;154.60;46.53;;;;;;;-11.31;92.02;100287.63;4189155;28;20309;-71
2021/12/27 03:50:36;;;;;;;139.67;45.60;;;;;;;-11.38;92.12;100285.09;4186793;28;20232;-73
2021/12/27 03:53:04;;;;;;;136.80;43.83;;;;;;;-11.31;92.58;100277.34;4194576;28;20633;-71
2021/12/27 03:55:31;;;;;;;134.67;40.47;;;;;;;-11.14;92.92;100279.78;4180771;28;20286;-71
2021/12/27 03:58:07;;;;;;;143.47;43.73;;;;;;;-11.05;93.03;100286.53;4202014;28;20291;-73
2021/12/27 04:03:36;;;;;;;122.80;39.70;;;;;;;-10.96;93.18;100285.59;4172242;28;20244;-72
2021/12/27 04:06:02;;;;;;;132.57;41.33;;;;;;;-10.89;93.19;100279.53;4201340;28;22949;-73
2021/12/27 04:08:29;;;;;;;135.50;41.53;;;;;;;-11.01;92.36;100277.09;4204848;28;20299;-72
2021/12/27 04:10:55;;;;;;;129.90;41.73;;;;;;;-11.05;92.62;100279.69;4185576;28;21120;-71
2021/12/27 04:13:22;;;;;;;135.73;42.90;;;;;;;-10.95;92.89;100277.03;4192648;28;25201;-70
2021/12/27 04:15:50;;;;;;;129.03;40.97;;;;;;;-10.92;92.48;100285.56;4175050;28;20322;-71
2021/12/27 04:18:17;;;;;;;132.50;44.03;;;;;;;-10.93;92.58;100276.16;4196955;28;20351;-71
2021/12/27 04:20:46;;;;;;;140.57;43.97;;;;;;;-10.87;92.56;100282.94;4189465;28;20559;-71
2021/12/27 04:23:13;;;;;;;122.67;39.50;;;;;;;-10.93;92.11;100278.72;4196567;28;21206;-72
2021/12/27 04:25:41;;;;;;;130.63;42.53;;;;;;;-11.04;92.50;100270.25;4195897;28;20245;-71
2021/12/27 04:28:08;;;;;;;134.63;42.93;;;;;;;-10.95;92.42;100269.34;4200003;28;20301;-71
2021/12/27 04:30:35;;;;;;;144.43;46.10;;;;;;;-11.02;92.53;100271.09;4197588;28;20231;-70
2021/12/27 04:33:02;;;;;;;140.27;44.53;;;;;;;-11.13;92.49;100266.06;4189691;28;20571;-72
2021/12/27 04:35:29;;;;;;;141.63;44.07;;;;;;;-11.28;93.00;100264.47;4194916;28;20417;-71
2021/12/27 04:37:56;;;;;;;142.87;45.40;;;;;;;-11.24;93.67;100267.84;4201934;28;20242;-71
2021/12/27 04:40:23;;;;;;;143.03;44.70;;;;;;;-11.15;93.09;100267.78;4190323;28;20243;-71
2021/12/27 04:42:55;;;;;;;143.07;44.50;;;;;;;-11.23;93.19;100255.88;4212290;28;20232;-71
2021/12/27 04:45:21;;;;;;;143.20;43.90;;;;;;;-11.30;93.40;100260.22;4208571;28;20415;-70
2021/12/27 04:47:48;;;;;;;145.67;45.90;;;;;;;-11.29;94.75;100260.19;4190250;28;20377;-71
2021/12/27 04:50:15;;;;;;;139.07;43.43;;;;;;;-11.11;94.80;100253.19;4197249;28;20243;-71
2021/12/27 04:52:42;;;;;;;139.63;43.60;;;;;;;-11.18;94.68;100262.69;4185022;28;20700;-71
2021/12/27 04:55:09;;;;;;;140.37;44.70;;;;;;;-11.18;95.22;100257.53;4175597;28;20698;-70
2021/12/27 04:57:35;;;;;;;134.30;44.83;;;;;;;-11.15;95.01;100259.22;4174829;28;22240;-70
2021/12/27 05:00:04;;;;;;;137.50;43.30;;;;;;;-11.18;94.82;100254.97;4200182;28;20240;-71
2021/12/27 05:02:30;;;;;;;146.33;43.13;;;;;;;-11.11;94.75;100254.03;4203395;28;22987;-71
2021/12/27 05:04:57;;;;;;;132.97;42.57;;;;;;;-11.20;94.71;100254.13;4188856;28;20916;-72
2021/12/27 05:07:23;;;;;;;140.87;44.33;;;;;;;-11.13;94.65;100250.63;4200632;28;20251;-71
2021/12/27 05:09:50;;;;;;;136.63;42.57;;;;;;;-11.02;95.19;100252.28;4195885;28;20317;-72
2021/12/27 05:12:16;;;;;;;133.90;40.83;;;;;;;-11.01;94.41;100259.94;4197957;28;22147;-71
2021/12/27 05:14:42;;;;;;;136.87;42.20;;;;;;;-10.97;94.26;100261.63;4187887;28;20370;-73
2021/12/27 05:17:09;;;;;;;132.97;40.93;;;;;;;-11.05;93.64;100261.72;4200708;28;20232;-73
2021/12/27 05:19:40;;;;;;;134.37;42.37;;;;;;;-11.09;94.03;100254.88;4166510;28;20899;-72
2021/12/27 05:22:07;;;;;;;125.30;40.20;;;;;;;-11.00;94.16;100258.22;4182122;28;21090;-72
2021/12/27 05:24:33;;;;;;;144.80;42.93;;;;;;;-10.93;93.98;100262.44;4184068;28;25777;-73
2021/12/27 05:27:00;;;;;;;126.50;41.33;;;;;;;-10.89;92.98;100264.13;4191202;28;20248;-71
2021/12/27 05:29:26;;;;;;;137.23;40.80;;;;;;;-10.89;93.11;100266.69;4178552;28;20233;-71
2021/12/27 05:31:53;;;;;;;130.30;41.30;;;;;;;-10.97;92.75;100264.19;4195267;28;20689;-72
2021/12/27 05:34:24;;;;;;;133.07;42.20;;;;;;;-10.99;92.32;100273.63;4195175;28;20296;-74
2021/12/27 05:36:50;;;;;;;138.83;41.00;;;;;;;-11.09;92.41;100270.31;4181317;28;20271;-72
2021/12/27 05:39:19;;;;;;;134.03;41.13;;;;;;;-11.18;93.66;100267.81;4207497;28;20425;-72
2021/12/27 05:41:46;;;;;;;136.23;42.63;;;;;;;-11.32;94.42;100274.78;4189524;28;20228;-71
2021/12/27 05:44:14;;;;;;;119.93;39.97;;;;;;;-11.22;94.80;100267.84;4209811;28;20326;-72
2021/12/27 05:46:41;;;;;;;136.37;40.90;;;;;;;-11.13;94.82;100266.06;4175396;28;20746;-72
2021/12/27 05:49:08;;;;;;;140.17;42.23;;;;;;;-11.13;94.82;100260.91;4188352;28;20239;-71
2021/12/27 05:51:36;;;;;;;138.73;43.97;;;;;;;-11.13;94.11;100260.91;4193816;28;23636;-72
2021/12/27 05:54:05;;;;;;;137.77;41.33;;;;;;;-11.13;95.06;100265.19;4182202;28;20226;-72
2021/12/27 05:56:32;;;;;;;131.40;39.37;;;;;;;-11.01;94.81;100265.09;4196520;28;20244;-70
2021/12/27 05:58:58;;;;;;;136.47;43.17;;;;;;;-10.96;94.64;100262.47;4186503;28;20528;-71
2021/12/27 06:01:25;;;;;;;148.67;42.57;;;;;;;-11.17;94.35;100263.53;4198926;28;22342;-73
2021/12/27 06:03:55;;;;;;;130.13;39.93;;;;;;;-11.17;94.79;100258.38;4185465;28;20307;-71
2021/12/27 06:06:21;;;;;;;148.67;41.80;;;;;;;-11.12;94.23;100264.31;4182401;28;20686;-71
2021/12/27 06:08:48;;;;;;;129.90;40.20;;;;;;;-11.03;94.28;100271.09;4181559;28;25260;-71
2021/12/27 06:11:14;;;;;;;130.13;42.13;;;;;;;-11.30;93.69;100273.91;4190556;28;20237;-71
2021/12/27 06:13:41;;;;;;;141.97;42.43;;;;;;;-11.30;94.10;100280.75;4184435;28;20241;-72
2021/12/27 06:16:07;;;;;;;129.27;41.80;;;;;;;-11.24;94.61;100273.00;4184501;28;20326;-72
2021/12/27 06:18:34;;;;;;;142.67;42.60;;;;;;;-11.21;94.39;100278.13;4182262;28;20502;-72
2021/12/27 06:21:01;;;;;;;151.50;42.23;;;;;;;-11.24;94.95;100273.00;4187545;28;20380;-70
2021/12/27 06:23:27;;;;;;;139.43;41.47;;;;;;;-11.38;95.10;100277.38;4185041;28;20433;-72
2021/12/27 06:25:54;;;;;;;151.97;42.93;;;;;;;-11.36;95.09;100283.38;4168363;28;20245;-69
2021/12/27 06:28:20;;;;;;;146.33;43.90;;;;;;;-11.39;95.57;100283.41;4186125;28;20242;-71
2021/12/27 06:30:47;;;;;;;144.00;43.97;;;;;;;-11.32;95.46;100274.78;4180704;28;25552;-70
2021/12/27 06:33:13;;;;;;;170.27;46.30;;;;;;;-11.28;95.71;100277.31;4185129;28;22253;-71
2021/12/27 06:35:40;;;;;;;152.57;45.93;;;;;;;-11.34;95.94;100272.22;4175811;28;20690;-70
2021/12/27 06:38:07;;;;;;;160.83;48.03;;;;;;;-11.33;96.50;100278.19;4199635;28;20245;-70
2021/12/27 06:40:33;;;;;;;167.53;47.23;;;;;;;-11.37;96.93;100271.41;4182412;28;20345;-71
2021/12/27 06:43:00;;;;;;;184.17;50.40;;;;;;;-11.38;96.59;100272.25;4186356;28;21702;-72
2021/12/27 06:45:26;;;;;;;173.83;48.23;;;;;;;-11.28;96.98;100272.19;4187017;28;20575;-70
2021/12/27 06:47:53;;;;;;;176.63;48.33;;;;;;;-11.35;97.74;100278.22;4189453;28;21167;-71
2021/12/27 06:50:21;;;;;;;157.97;47.30;;;;;;;-11.21;96.92;100283.25;4196752;28;20230;-71
2021/12/27 06:52:48;;;;;;;153.27;44.83;;;;;;;-11.06;97.06;100282.25;4196008;28;22148;-70
2021/12/27 06:55:14;;;;;;;154.33;44.67;;;;;;;-11.03;96.83;100278.81;4222908;28;21262;-71
2021/12/27 06:57:41;;;;;;;168.47;45.77;;;;;;;-11.00;96.52;100291.63;4205265;28;20243;-71
2021/12/27 07:00:11;;;;;;;159.80;45.93;;;;;;;-11.01;96.38;100289.94;4197089;28;23807;-71
2021/12/27 07:02:37;;;;;;;153.87;45.80;;;;;;;-10.97;96.33;100287.31;4197501;28;21290;-72
2021/12/27 07:05:05;;;;;;;161.53;46.50;;;;;;;-10.86;95.42;100293.22;4178732;28;21084;-71
2021/12/27 07:07:32;;;;;;;137.17;43.43;;;;;;;-10.97;95.62;100289.91;4187323;28;20419;-70
2021/12/27 07:09:59;;;;;;;132.67;43.53;;;;;;;-10.98;96.23;100285.63;4181435;28;21801;-72
2021/12/27 07:12:26;;;;;;;146.13;43.20;;;;;;;-10.97;96.60;100287.31;4185470;28;20740;-72
2021/12/27 07:14:53;;;;;;;141.33;43.83;;;;;;;-10.93;96.39;100288.13;4196642;28;20249;-71
2021/12/27 07:17:20;;;;;;;151.37;43.77;;;;;;;-10.92;96.44;100285.56;4186294;28;20323;-73
2021/12/27 07:19:47;;;;;;;145.37;45.20;;;;;;;-10.92;96.00;100288.13;4201416;28;20228;-71
2021/12/27 07:22:14;;;;;;;144.03;43.43;;;;;;;-10.79;96.11;100290.56;4194972;28;20233;-72
2021/12/27 07:24:41;;;;;;;146.00;45.33;;;;;;;-10.87;95.90;100293.22;4200218;28;20297;-72
2021/12/27 07:27:08;;;;;;;152.40;45.80;;;;;;;-10.99;95.78;100283.91;4194674;28;20691;-70
2021/12/27 07:29:34;;;;;;;164.87;48.27;;;;;;;-11.01;95.85;100292.50;4199408;28;22014;-71
2021/12/27 07:32:01;;;;;;;152.73;46.97;;;;;;;-10.94;95.84;100291.59;4198517;28;20449;-70
2021/12/27 07:34:28;;;;;;;157.13;45.27;;;;;;;-10.97;95.91;100289.91;4204119;28;25249;-71
2021/12/27 07:36:55;;;;;;;162.40;48.93;;;;;;;-10.97;95.43;100291.63;4196367;28;20658;-70
2021/12/27 07:39:24;;;;;;;144.37;43.10;;;;;;;-10.98;95.30;100298.47;4222294;28;27676;-71
2021/12/27 07:41:51;;;;;;;162.40;44.70;;;;;;;-10.96;95.46;100295.88;4198749;28;20283;-73
2021/12/27 07:44:17;;;;;;;147.00;44.40;;;;;;;-10.84;95.41;100298.31;4188304;28;22252;-72
2021/12/27 07:46:46;;;;;;;144.73;42.63;;;;;;;-10.89;95.80;100295.78;4206090;28;23182;-69
2021/12/27 07:49:14;;;;;;;141.23;44.00;;;;;;;-10.81;95.48;100297.47;4197599;28;20270;-70
2021/12/27 07:51:42;;;;;;;138.13;42.90;;;;;;;-10.74;95.41;100297.41;4229686;28;20228;-75
2021/12/27 07:54:08;;;;;;;155.17;43.43;;;;;;;-10.73;94.74;100291.38;4225466;28;21427;-70
2021/12/27 07:56:35;;;;;;;151.00;42.83;;;;;;;-10.65;94.57;100293.88;4193596;28;20306;-70
2021/12/27 07:59:04;;;;;;;127.80;39.30;;;;;;;-10.62;94.79;100293.84;4195999;28;20236;-70
2021/12/27 08:01:32;;;;;;;113.10;38.97;;;;;;;-10.53;94.77;100283.47;4214172;28;20240;-76
2021/12/27 08:04:00;;;;;;;135.53;39.33;;;;;;;-10.46;94.83;100291.97;4202620;28;20264;-72
2021/12/27 08:06:26;;;;;;;111.80;35.20;;;;;;;-10.29;94.26;100291.78;4199623;28;20335;-70
2021/12/27 08:08:53;;;;;;;136.13;37.87;;;;;;;-10.25;93.96;100299.41;4198625;28;22428;-72
2021/12/27 08:11:20;;;;;;;107.50;36.17;;;;;;;-10.20;94.05;100307.91;4193967;28;25485;-71
2021/12/27 08:13:47;;;;;;;119.50;36.93;;;;;;;-10.17;93.92;100303.59;4185139;28;20279;-67
2021/12/27 08:16:14;;;;;;;108.17;35.27;;;;;;;-10.15;93.22;100300.16;4188708;28;21704;-69
2021/12/27 08:18:41;;;;;;;112.63;36.80;;;;;;;-10.14;93.58;100311.28;4203504;28;21848;-70
2021/12/27 08:21:08;;;;;;;131.33;38.37;;;;;;;-10.14;92.92;100306.13;4206133;28;20233;-70
2021/12/27 08:23:34;;;;;;;117.93;36.57;;;;;;;-10.10;92.98;100302.66;4182694;28;20305;-70
2021/12/27 08:26:01;;;;;;;117.00;37.50;;;;;;;-10.03;92.60;100304.28;4230640;28;20761;-69
2021/12/27 08:28:28;;;;;;;124.33;37.70;;;;;;;-9.98;93.07;100308.50;4191696;28;20229;-71
2021/12/27 08:30:54;;;;;;;124.13;38.93;;;;;;;-9.91;93.35;100314.41;4211129;28;20229;-68
2021/12/27 08:33:21;;;;;;;115.03;37.63;;;;;;;-9.84;93.38;100310.06;4186758;28;20312;-69
2021/12/27 08:35:48;;;;;;;114.43;39.40;;;;;;;-9.80;92.69;100302.25;4199972;28;20291;-68
2021/12/27 08:38:16;;;;;;;126.53;39.33;;;;;;;-9.78;92.47;100305.69;4208385;28;20239;-70
2021/12/27 08:40:42;;;;;;;128.10;38.63;;;;;;;-9.70;92.72;100312.44;4206825;28;20255;-69
2021/12/27 08:43:09;;;;;;;111.77;36.57;;;;;;;-9.53;92.72;100313.03;4223523;28;20237;-69
2021/12/27 08:45:36;;;;;;;120.47;38.50;;;;;;;-9.52;91.83;100301.88;4199812;28;20280;-68
2021/12/27 08:48:03;;;;;;;115.93;35.90;;;;;;;-9.52;91.14;100295.88;4201295;28;20455;-69
2021/12/27 08:50:30;;;;;;;109.23;37.20;;;;;;;-9.38;91.48;100302.53;4196733;28;20258;-68
2021/12/27 08:52:56;;;;;;;115.90;37.37;;;;;;;-9.14;90.46;100303.03;4203632;28;21648;-70
2021/12/27 08:55:23;;;;;;;114.70;38.17;;;;;;;-9.06;90.21;100311.50;4202343;28;26293;-67
2021/12/27 08:57:51;;;;;;;126.67;36.70;;;;;;;-8.81;89.29;100311.06;4202696;28;20320;-69
2021/12/27 09:00:19;;;;;;;118.10;36.33;;;;;;;-8.45;88.71;100304.41;4204307;28;20236;-70
2021/12/27 09:02:46;;;;;;;117.80;37.63;;;;;;;-7.56;85.88;100309.44;4197405;28;22788;-70
2021/12/27 09:05:13;;;;;;;109.53;37.33;;;;;;;-5.30;76.15;100320.66;4205182;28;23422;-70
2021/12/27 09:07:40;;;;;;;105.47;34.60;;;;;;;-3.09;64.06;100316.31;4192180;28;20319;-69
2021/12/27 09:10:10;;;;;;;83.97;30.33;;;;;;;-0.52;52.81;100329.94;4199983;28;20511;-70
2021/12/27 09:12:38;;;;;;;85.20;29.50;;;;;;;0.34;48.23;100329.88;4183467;28;20236;-69
2021/12/27 09:15:09;;;;;;;83.67;29.30;;;;;;;1.23;47.83;100335.44;4215678;28;20224;-70
2021/12/27 09:17:36;;;;;;;91.73;29.57;;;;;;;3.43;40.44;100338.47;4204986;28;20240;-70
2021/12/27 09:20:03;;;;;;;79.83;29.50;;;;;;;3.58;39.23;100347.13;4204426;28;20303;-71
2021/12/27 09:22:30;;;;;;;77.40;29.43;;;;;;;5.53;36.30;100353.63;4193197;28;20238;-69
2021/12/27 09:24:57;;;;;;;81.10;29.67;;;;;;;6.60;32.00;100337.44;4218979;28;20242;-69
2021/12/27 09:27:23;;;;;;;76.17;31.10;;;;;;;6.22;30.27;100338.66;4196229;28;20572;-71
2021/12/27 09:29:51;;;;;;;75.80;32.37;;;;;;;5.35;31.39;100332.09;4201042;28;21420;-70
2021/12/27 09:32:18;;;;;;;73.90;31.53;;;;;;;4.09;33.75;100317.38;4197438;28;20235;-71
2021/12/27 09:34:44;;;;;;;80.50;33.53;;;;;;;3.36;34.74;100311.75;4185011;28;21575;-71
2021/12/27 09:37:11;;;;;;;77.57;30.70;;;;;;;3.82;33.61;100307.81;4207605;28;20904;-71
2021/12/27 09:39:38;;;;;;;69.93;30.43;;;;;;;4.74;33.27;100316.31;4194455;28;20373;-70
2021/12/27 09:42:04;;;;;;;81.13;29.43;;;;;;;2.12;35.82;100303.91;4200112;28;20227;-70
2021/12/27 09:44:32;;;;;;;70.37;29.30;;;;;;;2.03;37.72;100296.59;4207721;28;20233;-71
2021/12/27 09:46:59;;;;;;;69.40;28.60;;;;;;;1.14;38.59;100307.97;4176083;28;22361;-70
2021/12/27 09:49:29;;;;;;;76.63;30.73;;;;;;;-0.76;42.38;100300.66;4179113;28;20269;-69
2021/12/27 09:51:57;;;;;;;84.67;29.57;;;;;;;-1.28;45.47;100293.59;4202450;28;20232;-68
2021/12/27 09:54:26;;;;;;;86.70;30.50;;;;;;;-0.95;45.21;100285.06;4187730;28;20239;-64
2021/12/27 09:56:53;;;;;;;77.60;28.73;;;;;;;-2.16;48.68;100288.09;4195070;28;20245;-66
2021/12/27 09:59:20;;;;;;;84.47;30.33;;;;;;;-2.53;50.25;100278.44;4184395;28;20239;-70
2021/12/27 10:01:47;;;;;;;84.87;29.13;;;;;;;-2.35;49.00;100267.22;4206853;28;20784;-68
2021/12/27 10:04:14;;;;;;;72.93;26.70;;;;;;;-0.66;45.56;100274.91;4235361;28;20227;-68
2021/12/27 10:06:41;;;;;;;82.17;27.97;;;;;;;-0.03;42.61;100280.34;4275045;28;20296;-68
2021/12/27 10:09:09;;;;;;;70.53;27.00;;;;;;;1.33;39.25;100280.69;4313684;28;20231;-68
2021/12/27 10:11:42;;;;;;;71.03;26.43;;;;;;;2.37;36.81;100278.78;4247854;28;20235;-68
2021/12/27 10:14:24;;;;;;;74.47;26.80;;;;;;;3.87;34.97;100279.38;4188853;28;20284;-68
2021/12/27 10:17:00;;;;;;;66.50;27.73;;;;;;;4.69;32.94;100282.38;4193414;28;21229;-69
2021/12/27 10:19:27;;;;;;;65.83;27.47;;;;;;;6.37;29.92;100286.44;4229882;28;20237;-70
2021/12/27 10:21:54;;;;;;;69.30;28.20;;;;;;;7.14;27.31;100296.94;4203103;28;20557;-67
2021/12/27 10:24:28;;;;;;;73.37;26.70;;;;;;;5.58;29.79;100277.56;4206851;28;20249;-68
2021/12/27 10:26:58;;;;;;;70.63;28.00;;;;;;;5.60;29.08;100296.78;4206743;28;20231;-69
2021/12/27 10:29:28;;;;;;;64.07;26.50;;;;;;;5.86;28.40;100282.41;4199455;28;21814;-69
2021/12/27 10:32:11;;;;;;;77.50;28.47;;;;;;;3.47;31.90;100263.69;4198434;28;20277;-69
2021/12/27 10:34:47;;;;;;;65.97;27.23;;;;;;;3.72;31.36;100257.59;4206781;28;20351;-68
2021/12/27 10:37:21;;;;;;;64.97;25.30;;;;;;;5.29;30.11;100265.63;4201565;28;20236;-69
2021/12/27 10:39:50;;;;;;;66.10;24.53;;;;;;;3.74;31.72;100257.47;4200613;28;20324;-69
2021/12/27 10:42:22;;;;;;;69.80;26.33;;;;;;;4.17;31.10;100257.97;4199601;28;20233;-68
2021/12/27 10:44:51;;;;;;;72.00;25.53;;;;;;;4.79;30.04;100254.38;4183808;28;21414;-69
2021/12/27 10:47:34;;;;;;;65.37;23.87;;;;;;;7.66;27.23;100269.72;4190864;28;20240;-69
2021/12/27 10:50:05;;;;;;;63.37;26.10;;;;;;;6.46;26.69;100264.56;4186213;28;20232;-70
2021/12/27 10:53:00;;;;;;;67.87;27.20;;;;;;;3.10;31.98;100241.63;4196836;28;20229;-69
2021/12/27 10:55:46;;;;;;;70.83;26.73;;;;;;;4.70;30.38;100238.41;4217057;28;20237;-70
2021/12/27 10:58:20;;;;;;;76.47;28.17;;;;;;;3.76;31.18;100232.72;4199979;28;20237;-69
2021/12/27 11:00:51;;;;;;;65.47;26.60;;;;;;;4.55;29.26;100235.09;4205833;28;22142;-70
2021/12/27 11:03:43;;;;;;;79.77;27.53;;;;;;;4.46;30.18;100226.06;4210402;28;20245;-69
2021/12/27 11:06:12;;;;;;;69.37;27.87;;;;;;;3.42;32.75;100218.44;4223749;28;20229;-69
2021/12/27 11:08:42;;;;;;;78.13;28.33;;;;;;;2.08;33.81;100219.28;4204065;28;20296;-70
2021/12/27 11:11:09;;;;;;;74.97;26.03;;;;;;;0.02;38.82;100206.03;4214632;28;23930;-71